createdAt,value
2019-05-07T00:00:03.509Z,9.67
2019-05-07T00:04:58.539Z,8.23
2019-05-07T00:09:52.666Z,13.10
2019-05-07T00:14:58.104Z,7.50
2019-05-07T00:19:43.338Z,8.20
2019-05-07T00:29:32.172Z,8.97
2019-05-07T00:34:26.874Z,12.70
2019-05-07T00:39:23.575Z,12.33
2019-05-07T00:44:18.864Z,8.13
2019-05-07T00:49:12.813Z,8.67
2019-05-07T00:54:07.854Z,8.90
2019-05-07T00:59:02.416Z,10.67
2019-05-07T01:03:56.436Z,7.03
2019-05-07T01:08:52.401Z,12.87
2019-05-07T01:13:46.162Z,7.67
2019-05-07T01:18:42.057Z,9.50
2019-05-07T01:23:35.563Z,9.07
2019-05-07T01:28:29.636Z,10.47
2019-05-07T01:33:29.409Z,7.70
2019-05-07T01:38:23.321Z,11.13
2019-05-07T01:43:16.379Z,8.93
2019-05-07T01:48:12.609Z,9.00
2019-05-07T01:53:06.435Z,6.73
2019-05-07T01:58:04.557Z,11.53
2019-05-07T02:03:02.695Z,8.90
2019-05-07T02:07:57.861Z,7.67
2019-05-07T02:12:52.611Z,8.73
2019-05-07T02:17:46.734Z,9.53
2019-05-07T02:22:42.773Z,8.00
2019-05-07T02:27:37.016Z,8.50
2019-05-07T02:32:33.153Z,10.17
2019-05-07T02:37:35.724Z,6.80
2019-05-07T02:42:24.061Z,9.43
2019-05-07T02:47:19.957Z,10.90
2019-05-07T02:52:16.992Z,8.63
2019-05-07T02:57:13.316Z,12.07
2019-05-07T03:02:07.236Z,7.77
2019-05-07T03:07:03.997Z,10.93
2019-05-07T03:11:57.411Z,12.57
2019-05-07T03:16:53.722Z,12.20
2019-05-07T03:21:56.667Z,12.97
2019-05-07T03:26:53.393Z,9.13
2019-05-07T03:31:47.791Z,12.07
2019-05-07T03:36:48.306Z,10.07
2019-05-07T03:41:43.320Z,15.57
2019-05-07T03:46:53.294Z,55.03
2019-05-07T03:51:33.039Z,49.47
2019-05-07T03:56:27.198Z,87.17
2019-05-07T04:01:24.001Z,31.70
2019-05-07T04:06:17.424Z,25.73
2019-05-07T04:11:13.848Z,24.77
2019-05-07T04:16:07.257Z,24.90
2019-05-07T04:21:03.730Z,12.40
2019-05-07T04:26:05.516Z,14.33
2019-05-07T04:31:02.842Z,17.00
2019-05-07T04:35:58.452Z,11.80
2019-05-07T04:40:53.841Z,6.60
2019-05-07T04:45:47.721Z,11.57
2019-05-07T04:50:47.360Z,16.53
2019-05-07T04:55:38.856Z,11.70
2019-05-07T05:00:33.834Z,14.43
2019-05-07T05:05:28.433Z,12.37
2019-05-07T05:10:23.038Z,13.13
2019-05-07T05:15:18.577Z,8.70
2019-05-07T05:20:14.319Z,9.03
2019-05-07T05:25:13.083Z,9.40
2019-05-07T05:30:13.365Z,24.80
2019-05-07T05:35:08.716Z,18.60
2019-05-07T05:40:08.582Z,16.93
2019-05-07T05:45:02.079Z,12.87
2019-05-07T05:49:55.845Z,13.07
2019-05-07T05:54:52.864Z,18.20
2019-05-07T05:59:54.450Z,12.27
2019-05-07T06:05:06.475Z,14.50
2019-05-07T06:10:03.260Z,13.77
2019-05-07T06:15:12.692Z,13.70
2019-05-07T06:20:25.958Z,11.90
2019-05-07T06:25:24.860Z,11.40
2019-05-07T06:30:17.867Z,15.60
2019-05-07T06:35:12.368Z,12.03
2019-05-07T06:40:12.155Z,13.93
2019-05-07T06:45:15.142Z,11.20
2019-05-07T06:50:09.118Z,13.10
2019-05-07T06:55:03.932Z,11.23
2019-05-07T07:00:06.657Z,12.27
2019-05-07T07:05:05.153Z,12.77
2019-05-07T07:10:02.793Z,12.57
2019-05-07T07:19:51.784Z,11.30
2019-05-07T07:24:45.395Z,12.13
2019-05-07T07:29:44.872Z,10.63
2019-05-07T07:34:38.016Z,10.63
2019-05-07T07:39:32.327Z,13.87
2019-05-07T07:44:26.367Z,10.90
2019-05-07T07:49:22.092Z,9.73
2019-05-07T07:54:15.815Z,11.83
2019-05-07T07:59:17.331Z,11.37
2019-05-07T08:04:12.314Z,12.17
2019-05-07T08:09:08.121Z,12.77
2019-05-07T08:14:03.652Z,14.53
2019-05-07T08:18:57.710Z,15.37
2019-05-07T08:23:52.865Z,13.70
2019-05-07T08:28:49.309Z,15.97
2019-05-07T08:33:46.575Z,15.60
2019-05-07T08:38:52.724Z,12.37
2019-05-07T08:43:45.955Z,14.83
2019-05-07T08:48:42.490Z,17.43
2019-05-07T08:53:38.344Z,12.40
2019-05-07T08:58:32.399Z,10.27
2019-05-07T09:03:44.512Z,10.73
2019-05-07T09:08:38.260Z,12.93
2019-05-07T09:18:24.927Z,15.33
2019-05-07T09:23:19.157Z,16.50
2019-05-07T09:28:12.998Z,17.90
2019-05-07T09:33:13.306Z,17.80
2019-05-07T09:38:07.147Z,16.57
2019-05-07T09:43:02.539Z,16.73
2019-05-07T09:47:56.571Z,18.20
2019-05-07T09:52:51.846Z,28.13
2019-05-07T09:57:45.863Z,17.17
2019-05-07T10:02:39.888Z,15.23
2019-05-07T10:07:33.831Z,14.83
2019-05-07T10:12:37.919Z,14.30
2019-05-07T10:17:36.344Z,13.63
2019-05-07T10:22:32.176Z,15.57
2019-05-07T10:27:26.622Z,12.27
2019-05-07T10:37:13.393Z,14.90
2019-05-07T10:42:07.168Z,14.63
2019-05-07T10:47:19.035Z,16.07
2019-05-07T10:52:12.915Z,15.27
2019-05-07T10:57:07.108Z,14.10
2019-05-07T11:02:03.755Z,17.20
2019-05-07T11:06:57.931Z,14.83
2019-05-07T11:11:51.893Z,14.30
2019-05-07T11:16:47.511Z,13.80
2019-05-07T11:21:43.223Z,12.93
2019-05-07T11:26:36.975Z,13.37
2019-05-07T11:31:32.838Z,13.37
2019-05-07T11:36:26.388Z,14.33
2019-05-07T11:41:22.894Z,12.30
2019-05-07T11:46:24.515Z,11.33
2019-05-07T11:51:23.122Z,11.63
2019-05-07T11:56:17.177Z,10.13
2019-05-07T12:01:15.850Z,11.67
2019-05-07T12:06:09.798Z,11.87
2019-05-07T12:11:03.745Z,11.47
2019-05-07T12:15:58.027Z,11.07
2019-05-07T12:20:54.213Z,9.23
2019-05-07T12:25:47.805Z,9.93
2019-05-07T12:30:59.030Z,13.37
2019-05-07T12:35:53.283Z,7.10
2019-05-07T12:40:47.092Z,9.80
2019-05-07T12:45:42.090Z,8.20
2019-05-07T12:50:36.315Z,5.53
2019-05-07T12:55:43.894Z,7.77
2019-05-07T13:00:52.021Z,3.93
2019-05-07T13:05:46.224Z,4.33
2019-05-07T13:10:42.716Z,3.37
2019-05-07T13:15:35.855Z,3.80
2019-05-07T13:20:31.915Z,3.03
2019-05-07T13:25:28.306Z,3.07
2019-05-07T13:30:23.273Z,1.97
2019-05-07T13:35:18.080Z,3.00
2019-05-07T13:40:34.286Z,2.50
2019-05-07T13:45:31.665Z,3.13
2019-05-07T13:50:25.558Z,4.57
2019-05-07T13:55:21.430Z,3.60
2019-05-07T14:00:16.839Z,2.63
2019-05-07T14:05:14.074Z,3.07
2019-05-07T14:10:06.694Z,1.60
2019-05-07T14:15:02.203Z,2.10
2019-05-07T14:19:57.629Z,2.40
2019-05-07T14:24:53.738Z,1.93
2019-05-07T14:29:48.398Z,12.47
2019-05-07T14:35:02.107Z,2.27
2019-05-07T14:39:56.042Z,1.90
2019-05-07T14:49:45.629Z,2.20
2019-05-07T14:54:39.436Z,2.80
2019-05-07T14:59:33.637Z,1.77
2019-05-07T15:10:24.662Z,0.80
2019-05-07T15:15:18.585Z,1.77
2019-05-07T15:20:13.137Z,3.80
2019-05-07T15:25:07.607Z,1.50
2019-05-07T15:30:04.871Z,2.40
2019-05-07T15:34:58.890Z,2.10
2019-05-07T15:39:53.170Z,3.40
2019-05-07T15:44:47.011Z,2.27
2019-05-07T15:49:41.814Z,2.37
2019-05-07T15:54:36.354Z,3.53
2019-05-07T15:59:30.368Z,2.20
2019-05-07T16:04:25.979Z,3.20
2019-05-07T16:09:21.645Z,2.17
2019-05-07T16:14:26.443Z,2.43
2019-05-07T16:19:20.012Z,1.93
2019-05-07T16:24:13.764Z,2.50
2019-05-07T16:29:07.915Z,2.50
2019-05-07T16:34:02.566Z,2.27
2019-05-07T16:38:56.859Z,2.90
2019-05-07T16:43:52.296Z,2.27
2019-05-07T16:48:46.381Z,2.80
2019-05-07T16:53:42.127Z,2.43
2019-05-07T16:58:38.144Z,2.20
2019-05-07T17:03:38.883Z,2.30
2019-05-07T17:08:35.827Z,2.60
2019-05-07T17:13:31.774Z,2.50
2019-05-07T17:18:26.976Z,3.13
2019-05-07T17:23:22.571Z,2.73
2019-05-07T17:28:17.318Z,2.07
2019-05-07T17:33:12.826Z,2.80
2019-05-07T17:38:09.760Z,2.70
2019-05-07T17:43:07.143Z,4.27
2019-05-07T17:48:03.123Z,2.20
2019-05-07T17:52:57.965Z,3.00
2019-05-07T17:57:52.315Z,2.53
2019-05-07T18:03:04.487Z,2.40
2019-05-07T18:07:58.364Z,3.57
2019-05-07T18:12:53.748Z,3.47
2019-05-07T18:17:51.819Z,3.37
2019-05-07T18:22:45.661Z,3.17
2019-05-07T18:27:39.619Z,4.00
2019-05-07T18:32:35.099Z,5.07
2019-05-07T18:37:28.842Z,5.40
2019-05-07T18:42:23.001Z,5.53
2019-05-07T18:47:16.692Z,7.73
2019-05-07T18:52:12.497Z,11.00
2019-05-07T18:57:06.349Z,12.63
2019-05-07T19:02:02.189Z,11.53
2019-05-07T19:06:55.768Z,12.43
2019-05-07T19:11:52.076Z,12.40
2019-05-07T19:16:47.227Z,12.10
2019-05-07T19:21:42.287Z,11.60
2019-05-07T19:26:36.420Z,11.40
2019-05-07T19:31:32.380Z,11.37
2019-05-07T19:36:25.862Z,12.53
2019-05-07T19:41:20.961Z,12.50
2019-05-07T19:46:14.883Z,11.97
2019-05-07T19:51:08.714Z,10.70
2019-05-07T19:56:08.108Z,11.47
2019-05-07T20:01:04.333Z,11.53
2019-05-07T20:05:59.076Z,11.27
2019-05-07T20:10:54.731Z,11.80
2019-05-07T20:15:52.054Z,11.73
2019-05-07T20:20:47.561Z,13.93
2019-05-07T20:25:42.003Z,12.33
2019-05-07T20:30:36.296Z,11.83
2019-05-07T20:35:30.070Z,12.23
2019-05-07T20:40:24.246Z,12.43
2019-05-07T20:45:19.807Z,13.43
2019-05-07T20:50:13.971Z,13.37
2019-05-07T20:55:28.156Z,14.20
2019-05-07T21:00:17.847Z,14.00
2019-05-07T21:05:11.821Z,16.67
2019-05-07T21:10:07.811Z,18.07
2019-05-07T21:15:04.550Z,14.90
2019-05-07T21:19:58.349Z,15.83
2019-05-07T21:24:53.177Z,13.90
2019-05-07T21:29:49.275Z,13.47
2019-05-07T21:34:43.451Z,13.57
2019-05-07T21:39:37.177Z,13.20
2019-05-07T21:44:32.611Z,13.90
2019-05-07T21:49:26.598Z,14.80
2019-05-07T21:54:30.907Z,17.63
2019-05-07T21:59:26.471Z,14.87
2019-05-07T22:09:15.020Z,23.20
2019-05-07T22:14:08.908Z,21.87
2019-05-07T22:19:03.678Z,30.57
2019-05-07T22:23:58.324Z,17.03
2019-05-07T22:28:54.172Z,20.57
2019-05-07T22:33:59.358Z,16.43
2019-05-07T22:38:53.181Z,15.53
2019-05-07T22:43:46.997Z,16.70
2019-05-07T22:48:41.917Z,15.87
2019-05-07T22:53:42.349Z,16.10
2019-05-07T22:58:42.016Z,15.37
2019-05-07T23:03:35.904Z,15.47
2019-05-07T23:08:29.779Z,15.10
2019-05-07T23:23:13.896Z,14.00
2019-05-07T23:28:08.307Z,13.57
2019-05-07T23:33:06.313Z,13.60
2019-05-07T23:38:02.494Z,14.40
2019-05-07T23:43:04.296Z,14.43
2019-05-07T23:47:58.057Z,14.70
2019-05-07T23:52:52.746Z,14.90
2019-05-07T23:57:46.602Z,14.97
